SUR4606 SABE-SAAP
Flight info
| Callsign | SUR4606 |
|---|---|
| Flight time | 0h 42m |
| Altitude | 30000 |
| Route | BIVAM4B BIVAM UW8 UGALA |
| Aircraft | B737/M-SDE2E3FGHIRWXY/LB1 |
Departure
| Time | 2026-04-30 19:05 |
|---|---|
| Airport | Aeroparque Jorge Newbery (SABE) |
Arrival
| Time | 2026-04-30 19:47 |
|---|---|
| Airport | General Urquiza Airport (SAAP) |
| Time | Latitude | Longitude | Altitude | Speed | Heading |
|---|---|---|---|---|---|
| 2026-04-30 18:46 | -34.55947 | -58.41176 | 30 ft | 0 kts | 279° |
| 2026-04-30 18:54 | -34.55948 | -58.41163 | 30 ft | 2 kts | 266° |
| 2026-04-30 18:54 | -34.55948 | -58.41145 | 30 ft | 2 kts | 273° |
| 2026-04-30 18:55 | -34.55948 | -58.41127 | 29 ft | 2 kts | 271° |
| 2026-04-30 18:55 | -34.55949 | -58.41100 | 29 ft | 0 kts | 304° |
| 2026-04-30 18:55 | -34.55952 | -58.41096 | 29 ft | 0 kts | 307° |
| 2026-04-30 18:57 | -34.55951 | -58.41097 | 29 ft | 0 kts | 307° |
| 2026-04-30 18:57 | -34.55949 | -58.41101 | 29 ft | 0 kts | 307° |
| 2026-04-30 18:57 | -34.55944 | -58.41108 | 29 ft | 1 kts | 304° |
| 2026-04-30 18:58 | -34.55922 | -58.41147 | 29 ft | 6 kts | 305° |
| 2026-04-30 18:58 | -34.55888 | -58.41193 | 29 ft | 7 kts | 311° |
| 2026-04-30 18:58 | -34.55862 | -58.41247 | 28 ft | 7 kts | 275° |
| 2026-04-30 18:59 | -34.55904 | -58.41330 | 29 ft | 5 kts | 268° |
| 2026-04-30 19:00 | -34.55849 | -58.41477 | 28 ft | 7 kts | 296° |
| 2026-04-30 19:00 | -34.55825 | -58.41535 | 28 ft | 8 kts | 296° |
| 2026-04-30 19:00 | -34.55773 | -58.41660 | 27 ft | 9 kts | 296° |
| 2026-04-30 19:01 | -34.55698 | -58.41819 | 25 ft | 11 kts | 304° |
| 2026-04-30 19:01 | -34.55655 | -58.41897 | 25 ft | 10 kts | 303° |
| 2026-04-30 19:02 | -34.55574 | -58.42040 | 25 ft | 9 kts | 304° |
| 2026-04-30 19:02 | -34.55490 | -58.42175 | 25 ft | 11 kts | 306° |
| 2026-04-30 19:03 | -34.55413 | -58.42299 | 26 ft | 8 kts | 308° |
| 2026-04-30 19:03 | -34.55368 | -58.42379 | 26 ft | 4 kts | 290° |
| 2026-04-30 19:04 | -34.55359 | -58.42473 | 28 ft | 4 kts | 251° |
| 2026-04-30 19:04 | -34.55494 | -58.42346 | 28 ft | 63 kts | 123° |
| 2026-04-30 19:05 | -34.56617 | -58.40395 | 773 ft | 175 kts | 123° |
| 2026-04-30 19:05 | -34.57496 | -58.37439 | 2145 ft | 203 kts | 80° |
| 2026-04-30 19:06 | -34.55853 | -58.34595 | 3405 ft | 229 kts | 26° |
| 2026-04-30 19:06 | -34.54429 | -58.33726 | 4321 ft | 236 kts | 25° |
| 2026-04-30 19:06 | -34.51471 | -58.31646 | 5928 ft | 262 kts | 29° |
| 2026-04-30 19:07 | -34.48046 | -58.30635 | 7761 ft | 267 kts | 341° |
| 2026-04-30 19:07 | -34.46471 | -58.31786 | 8726 ft | 269 kts | 315° |
| 2026-04-30 19:08 | -34.43998 | -58.35184 | 10523 ft | 279 kts | 311° |
| 2026-04-30 19:08 | -34.41211 | -58.38801 | 11710 ft | 310 kts | 312° |
| 2026-04-30 19:08 | -34.39699 | -58.40720 | 12230 ft | 325 kts | 312° |
| 2026-04-30 19:09 | -34.36461 | -58.44825 | 13671 ft | 342 kts | 311° |
| 2026-04-30 19:09 | -34.34835 | -58.46889 | 14555 ft | 344 kts | 311° |
| 2026-04-30 19:09 | -34.33194 | -58.48974 | 15421 ft | 345 kts | 310° |
| 2026-04-30 19:10 | -34.29862 | -58.53204 | 17060 ft | 350 kts | 310° |
| 2026-04-30 19:10 | -34.26503 | -58.57467 | 18612 ft | 355 kts | 310° |
| 2026-04-30 19:11 | -34.24820 | -58.59600 | 19399 ft | 356 kts | 310° |
| 2026-04-30 19:11 | -34.21381 | -58.63952 | 20844 ft | 361 kts | 310° |
| 2026-04-30 19:11 | -34.19669 | -58.66117 | 21535 ft | 363 kts | 310° |
| 2026-04-30 19:12 | -34.17916 | -58.68332 | 22232 ft | 365 kts | 310° |
| 2026-04-30 19:12 | -34.16178 | -58.70527 | 22910 ft | 366 kts | 310° |
| 2026-04-30 19:12 | -34.14411 | -58.72758 | 23506 ft | 370 kts | 310° |
| 2026-04-30 19:13 | -34.10822 | -58.77285 | 24710 ft | 376 kts | 310° |
| 2026-04-30 19:13 | -34.07184 | -58.81869 | 25835 ft | 383 kts | 310° |
| 2026-04-30 19:13 | -34.05316 | -58.84219 | 26373 ft | 387 kts | 310° |
| 2026-04-30 19:14 | -34.03470 | -58.86540 | 26903 ft | 390 kts | 310° |
| 2026-04-30 19:14 | -34.01595 | -58.88895 | 27404 ft | 393 kts | 310° |
| 2026-04-30 19:14 | -33.99703 | -58.91257 | 28115 ft | 391 kts | 311° |
| 2026-04-30 19:14 | -33.97773 | -58.93523 | 28929 ft | 387 kts | 314° |
| 2026-04-30 19:15 | -33.95696 | -58.95561 | 29610 ft | 388 kts | 319° |
| 2026-04-30 19:15 | -33.91106 | -58.99146 | 29941 ft | 394 kts | 324° |
| 2026-04-30 19:15 | -33.88761 | -59.00820 | 29945 ft | 392 kts | 324° |
| 2026-04-30 19:16 | -33.84062 | -59.04152 | 29945 ft | 392 kts | 324° |
| 2026-04-30 19:17 | -33.77077 | -59.09174 | 29942 ft | 391 kts | 324° |
| 2026-04-30 19:17 | -33.70066 | -59.14257 | 29943 ft | 391 kts | 324° |
| 2026-04-30 19:18 | -33.63071 | -59.19334 | 29944 ft | 391 kts | 324° |
| 2026-04-30 19:19 | -33.58401 | -59.22720 | 29943 ft | 392 kts | 324° |
| 2026-04-30 19:19 | -33.51412 | -59.27779 | 29943 ft | 393 kts | 324° |
| 2026-04-30 19:20 | -33.46752 | -59.31146 | 29945 ft | 392 kts | 324° |
| 2026-04-30 19:21 | -33.39745 | -59.36200 | 29939 ft | 392 kts | 324° |
| 2026-04-30 19:22 | -33.30748 | -59.42678 | 29936 ft | 392 kts | 324° |
| 2026-04-30 19:23 | -33.16735 | -59.52734 | 29935 ft | 391 kts | 324° |
| 2026-04-30 19:24 | -33.09718 | -59.57755 | 29934 ft | 391 kts | 324° |
| 2026-04-30 19:25 | -32.98060 | -59.66076 | 29846 ft | 385 kts | 326° |
| 2026-04-30 19:26 | -32.93559 | -59.69275 | 29304 ft | 376 kts | 326° |
| 2026-04-30 19:26 | -32.88942 | -59.72570 | 28935 ft | 398 kts | 326° |
| 2026-04-30 19:26 | -32.86570 | -59.74258 | 28701 ft | 388 kts | 326° |
| 2026-04-30 19:27 | -32.82009 | -59.77490 | 27601 ft | 380 kts | 326° |
| 2026-04-30 19:27 | -32.77526 | -59.80667 | 26366 ft | 375 kts | 326° |
| 2026-04-30 19:28 | -32.75314 | -59.82235 | 25651 ft | 370 kts | 326° |
| 2026-04-30 19:28 | -32.70952 | -59.85325 | 23995 ft | 363 kts | 326° |
| 2026-04-30 19:29 | -32.66705 | -59.88325 | 22821 ft | 343 kts | 325° |
| 2026-04-30 19:29 | -32.64763 | -59.89695 | 22372 ft | 333 kts | 326° |
| 2026-04-30 19:30 | -32.58877 | -59.93837 | 21049 ft | 347 kts | 328° |
| 2026-04-30 19:30 | -32.54653 | -59.96271 | 20110 ft | 327 kts | 332° |
| 2026-04-30 19:31 | -32.50478 | -59.98516 | 19159 ft | 345 kts | 332° |
| 2026-04-30 19:31 | -32.48298 | -59.99707 | 18644 ft | 343 kts | 332° |
| 2026-04-30 19:31 | -32.44042 | -60.02048 | 17385 ft | 336 kts | 332° |
| 2026-04-30 19:32 | -32.41930 | -60.03218 | 16914 ft | 332 kts | 332° |
| 2026-04-30 19:32 | -32.39839 | -60.04380 | 16543 ft | 327 kts | 332° |
| 2026-04-30 19:32 | -32.37813 | -60.05506 | 16250 ft | 323 kts | 332° |
| 2026-04-30 19:32 | -32.35780 | -60.06636 | 15981 ft | 321 kts | 332° |
| 2026-04-30 19:33 | -32.33755 | -60.07763 | 15711 ft | 321 kts | 332° |
| 2026-04-30 19:33 | -32.31764 | -60.08869 | 15269 ft | 319 kts | 333° |
| 2026-04-30 19:33 | -32.29761 | -60.09981 | 14705 ft | 320 kts | 333° |
| 2026-04-30 19:33 | -32.27735 | -60.11106 | 14030 ft | 324 kts | 333° |
| 2026-04-30 19:34 | -32.25677 | -60.12248 | 13342 ft | 327 kts | 333° |
| 2026-04-30 19:34 | -32.23638 | -60.13378 | 12702 ft | 329 kts | 334° |
| 2026-04-30 19:34 | -32.19518 | -60.15658 | 11765 ft | 319 kts | 335° |
| 2026-04-30 19:35 | -32.17539 | -60.16753 | 11506 ft | 309 kts | 335° |
| 2026-04-30 19:35 | -32.15598 | -60.17826 | 11122 ft | 304 kts | 335° |
| 2026-04-30 19:35 | -32.13709 | -60.18870 | 10638 ft | 303 kts | 335° |
| 2026-04-30 19:35 | -32.11809 | -60.19921 | 10338 ft | 295 kts | 335° |
| 2026-04-30 19:36 | -32.09987 | -60.20928 | 10215 ft | 282 kts | 336° |
| 2026-04-30 19:36 | -32.08255 | -60.21886 | 10116 ft | 269 kts | 336° |
| 2026-04-30 19:36 | -32.04948 | -60.23711 | 9552 ft | 260 kts | 336° |
| 2026-04-30 19:37 | -32.03316 | -60.24611 | 9209 ft | 258 kts | 337° |
| 2026-04-30 19:37 | -32.01689 | -60.25508 | 8879 ft | 255 kts | 336° |
| 2026-04-30 19:37 | -32.00104 | -60.26381 | 8564 ft | 252 kts | 337° |
| 2026-04-30 19:37 | -31.98514 | -60.27257 | 8242 ft | 250 kts | 337° |
| 2026-04-30 19:38 | -31.96938 | -60.28124 | 7921 ft | 248 kts | 337° |
| 2026-04-30 19:38 | -31.95384 | -60.28980 | 7614 ft | 245 kts | 337° |
| 2026-04-30 19:38 | -31.93858 | -60.29819 | 7297 ft | 243 kts | 337° |
| 2026-04-30 19:38 | -31.92330 | -60.30659 | 6981 ft | 241 kts | 337° |
| 2026-04-30 19:39 | -31.90802 | -60.31499 | 6673 ft | 239 kts | 338° |
| 2026-04-30 19:39 | -31.89313 | -60.32318 | 6371 ft | 237 kts | 337° |
| 2026-04-30 19:39 | -31.87815 | -60.33140 | 6055 ft | 236 kts | 338° |
| 2026-04-30 19:39 | -31.86330 | -60.33956 | 5739 ft | 235 kts | 338° |
| 2026-04-30 19:40 | -31.84852 | -60.34766 | 5437 ft | 233 kts | 338° |
| 2026-04-30 19:40 | -31.83393 | -60.35567 | 5135 ft | 232 kts | 338° |
| 2026-04-30 19:40 | -31.81928 | -60.36371 | 4831 ft | 231 kts | 338° |
| 2026-04-30 19:40 | -31.80470 | -60.37170 | 4529 ft | 231 kts | 338° |
| 2026-04-30 19:41 | -31.78987 | -60.37982 | 4442 ft | 238 kts | 338° |
| 2026-04-30 19:41 | -31.77462 | -60.38816 | 4439 ft | 242 kts | 338° |
| 2026-04-30 19:41 | -31.75943 | -60.39648 | 4444 ft | 242 kts | 338° |
| 2026-04-30 19:41 | -31.74566 | -60.40404 | 4438 ft | 237 kts | 338° |
| 2026-04-30 19:42 | -31.73165 | -60.41174 | 4434 ft | 229 kts | 338° |
| 2026-04-30 19:42 | -31.71723 | -60.41964 | 4438 ft | 221 kts | 338° |
| 2026-04-30 19:42 | -31.70363 | -60.42710 | 4441 ft | 207 kts | 338° |
| 2026-04-30 19:42 | -31.69099 | -60.43402 | 4441 ft | 192 kts | 338° |
| 2026-04-30 19:43 | -31.67925 | -60.44045 | 4442 ft | 181 kts | 338° |
| 2026-04-30 19:43 | -31.66844 | -60.44793 | 4443 ft | 183 kts | 322° |
| 2026-04-30 19:43 | -31.66169 | -60.46079 | 4444 ft | 195 kts | 290° |
| 2026-04-30 19:44 | -31.66601 | -60.49189 | 4442 ft | 195 kts | 236° |
| 2026-04-30 19:44 | -31.67642 | -60.50131 | 4445 ft | 187 kts | 205° |
| 2026-04-30 19:44 | -31.68917 | -60.50540 | 4084 ft | 196 kts | 184° |
| 2026-04-30 19:44 | -31.70257 | -60.50415 | 3767 ft | 196 kts | 160° |
| 2026-04-30 19:45 | -31.71478 | -60.49659 | 3261 ft | 203 kts | 136° |
| 2026-04-30 19:45 | -31.72472 | -60.48488 | 2860 ft | 199 kts | 127° |
| 2026-04-30 19:45 | -31.73537 | -60.47442 | 2375 ft | 202 kts | 148° |
| 2026-04-30 19:45 | -31.74902 | -60.47113 | 1804 ft | 210 kts | 184° |
| 2026-04-30 19:46 | -31.76348 | -60.47546 | 1092 ft | 217 kts | 194° |
| 2026-04-30 19:46 | -31.77815 | -60.47789 | 539 ft | 210 kts | 183° |
| 2026-04-30 19:46 | -31.79241 | -60.47994 | 249 ft | 193 kts | 188° |
| 2026-04-30 19:46 | -31.80290 | -60.48168 | 215 ft | 101 kts | 186° |
| 2026-04-30 19:47 | -31.80638 | -60.48244 | 214 ft | 6 kts | 214° |
| 2026-04-30 19:47 | -31.80642 | -60.48247 | 214 ft | 0 kts | 218° |
| 2026-04-30 19:47 | -31.80634 | -60.48255 | 214 ft | 6 kts | 0° |
| 2026-04-30 19:47 | -31.80520 | -60.48229 | 213 ft | 20 kts | 11° |
| 2026-04-30 19:48 | -31.80393 | -60.48236 | 214 ft | 17 kts | 302° |
| 2026-04-30 19:48 | -31.80373 | -60.48360 | 218 ft | 13 kts | 297° |
| 2026-04-30 19:48 | -31.80307 | -60.48406 | 220 ft | 11 kts | 1° |
| 2026-04-30 19:48 | -31.80228 | -60.48396 | 220 ft | 9 kts | 9° |
| 2026-04-30 19:49 | -31.80147 | -60.48380 | 221 ft | 15 kts | 7° |
| 2026-04-30 19:49 | -31.79846 | -60.48329 | 232 ft | 25 kts | 7° |
| 2026-04-30 19:49 | -31.79665 | -60.48299 | 239 ft | 25 kts | 9° |
| 2026-04-30 19:50 | -31.79505 | -60.48268 | 245 ft | 23 kts | 8° |
| 2026-04-30 19:50 | -31.79328 | -60.48237 | 250 ft | 27 kts | 8° |
| 2026-04-30 19:50 | -31.79135 | -60.48206 | 248 ft | 26 kts | 7° |
| 2026-04-30 19:50 | -31.79031 | -60.48254 | 252 ft | 13 kts | 289° |
| 2026-04-30 19:51 | -31.78994 | -60.48325 | 255 ft | 3 kts | 321° |
| 2026-04-30 19:51 | -31.78994 | -60.48326 | 255 ft | 0 kts | 321° |